KFFL/FFL METAR and TAF weather

Enter ICAO airport designator
Station Type Date Time Source
KFFL METAR 2021/02/27 22:15 UTC NOAA

KFFL 272215Z AUTO 10008KT 10SM CLR 08/03 A2993 RMK A01


Station Type Date Time Source
KFFL Decoded METAR 2021/02/27 22:15 UTC NOAA

Fair Field, IA, United States (KFFL) 41-03N 091-59W
Feb 27, 2021 - 05:15 PM EST / 2021.02.27 2215 UTC
Wind: from the E (100 degrees) at 9 MPH (8 KT):0
Visibility: 10 mile(s):0
Sky conditions: clear
Temperature: 46 F (8 C)
Dew Point: 37 F (3 C)
Relative Humidity: 70%
Pressure (altimeter): 29.93 in. Hg (1013 hPa)
ob: KFFL 272215Z AUTO 10008KT 10SM CLR 08/03 A2993 RMK A01
cycle: 22

Station Type Date Time Source
KFFL TAF UTC NOAA

Error!

Example: see airport list